Time;durP1;ratioP1;P1;durP2;ratioP2;P2;SDS_P1;SDS_P2;PMS_P1;PMS_P2;Temp;Humidity;BMP_temperature;BMP_pressure;BME280_temperature;BME280_humidity;BME280_pressure;Samples;Min_cycle;Max_cycle;Signal;HPM_P1;HPM_P2
2023/12/07 00:01:11;;;;;;;2.72;1.42;;;-0.90;99.90;;;;;;5063301;28;20501;-84
2023/12/07 00:03:37;;;;;;;2.17;0.80;;;-0.80;99.90;;;;;;5061339;28;20108;-81
2023/12/07 00:06:02;;;;;;;3.30;0.82;;;-0.90;99.90;;;;;;5044740;28;20029;-83
2023/12/07 00:08:28;;;;;;;2.35;0.70;;;-0.80;99.90;;;;;;5079705;28;20029;-82
2023/12/07 00:10:54;;;;;;;2.53;0.95;;;-0.90;99.90;;;;;;5044830;28;20109;-84
2023/12/07 00:16:46;;;;;;;2.53;0.80;;;-1.00;99.90;;;;;;4986994;28;20125;-85
2023/12/07 00:19:11;;;;;;;2.15;0.90;;;-1.20;99.90;;;;;;5036290;28;20042;-82
2023/12/07 00:21:37;;;;;;;3.13;0.90;;;-1.10;99.90;;;;;;5051592;28;20031;-88
2023/12/07 00:24:03;;;;;;;2.50;0.90;;;-1.40;99.90;;;;;;5053100;28;20443;-82
2023/12/07 00:26:28;;;;;;;2.75;0.90;;;-1.10;99.90;;;;;;5041330;28;20065;-86
2023/12/07 00:28:54;;;;;;;3.22;0.73;;;-1.20;99.90;;;;;;5053064;28;20063;-83
2023/12/07 00:31:20;;;;;;;2.33;0.80;;;-1.30;99.90;;;;;;5050079;28;20025;-84
2023/12/07 00:33:45;;;;;;;1.75;0.75;;;-1.30;99.90;;;;;;5085373;28;20098;-85
2023/12/07 00:36:12;;;;;;;2.00;0.90;;;-1.30;99.90;;;;;;5043098;28;20025;-82
2023/12/07 00:38:38;;;;;;;3.20;1.02;;;-1.30;99.90;;;;;;5085001;28;20073;-83
2023/12/07 00:41:03;;;;;;;3.65;0.90;;;-1.40;99.90;;;;;;5051619;28;20115;-85
2023/12/07 00:43:29;;;;;;;2.40;0.98;;;-1.30;99.90;;;;;;5067890;28;20470;-81
2023/12/07 00:45:55;;;;;;;2.60;0.82;;;-1.40;99.90;;;;;;5051175;28;20055;-84
2023/12/07 00:48:20;;;;;;;4.03;1.02;;;-1.40;99.90;;;;;;5034373;28;20025;-83
2023/12/07 00:50:47;;;;;;;2.65;0.77;;;-1.50;99.90;;;;;;5052356;28;20510;-84
2023/12/07 00:53:13;;;;;;;2.40;0.82;;;-1.50;99.90;;;;;;5051134;28;20021;-83
2023/12/07 00:55:40;;;;;;;3.55;1.00;;;-1.50;99.90;;;;;;5042854;28;20600;-84
2023/12/07 00:58:05;;;;;;;2.67;0.90;;;-1.50;99.90;;;;;;5051061;28;20029;-85
2023/12/07 01:00:31;;;;;;;4.53;1.15;;;-1.60;99.90;;;;;;5048409;28;20047;-81
2023/12/07 01:02:57;;;;;;;2.95;1.00;;;-1.60;99.90;;;;;;5067592;28;20529;-84
2023/12/07 01:05:22;;;;;;;2.58;0.80;;;-1.50;99.90;;;;;;5052195;28;20373;-81
2023/12/07 01:07:48;;;;;;;2.00;0.70;;;-1.50;99.90;;;;;;5033467;28;20055;-80
2023/12/07 01:10:14;;;;;;;2.70;0.80;;;-1.50;99.90;;;;;;5050033;28;20032;-81
2023/12/07 01:12:40;;;;;;;3.60;1.20;;;-1.60;99.90;;;;;;5050180;28;20060;-82
2023/12/07 01:15:06;;;;;;;2.78;1.13;;;-1.60;99.90;;;;;;5047989;28;20054;-81
2023/12/07 01:17:32;;;;;;;3.63;1.00;;;-1.50;99.90;;;;;;5046237;28;20059;-81
2023/12/07 01:19:57;;;;;;;2.90;1.00;;;-1.50;99.90;;;;;;5047221;28;20060;-82
2023/12/07 01:22:23;;;;;;;2.38;0.80;;;-1.60;99.90;;;;;;5075684;28;20052;-81
2023/12/07 01:24:49;;;;;;;2.20;0.90;;;-1.60;99.90;;;;;;5048251;28;20033;-80
2023/12/07 01:27:14;;;;;;;3.67;0.82;;;-1.60;99.90;;;;;;5038743;28;20037;-80
2023/12/07 01:29:40;;;;;;;2.28;0.90;;;-1.50;99.90;;;;;;5048609;28;20090;-83
2023/12/07 01:32:06;;;;;;;2.00;0.80;;;-1.60;99.90;;;;;;5045989;28;20187;-81
2023/12/07 01:34:32;;;;;;;2.90;0.90;;;-1.60;99.90;;;;;;5046009;28;20439;-81
2023/12/07 01:36:58;;;;;;;2.35;0.88;;;-1.80;99.90;;;;;;5076275;28;20029;-81
2023/12/07 01:39:24;;;;;;;2.30;0.80;;;-1.70;99.90;;;;;;5040453;28;20036;-81
2023/12/07 01:41:51;;;;;;;1.75;0.77;;;-1.80;99.90;;;;;;5036746;28;20162;-83
2023/12/07 01:44:16;;;;;;;1.92;0.90;;;-1.80;99.90;;;;;;5046469;28;20123;-80
2023/12/07 01:46:42;;;;;;;2.47;0.80;;;-1.80;99.90;;;;;;5047668;28;20120;-81
2023/12/07 01:49:09;;;;;;;2.90;1.00;;;-1.80;99.90;;;;;;5036009;28;20017;-80
2023/12/07 01:51:35;;;;;;;3.15;0.80;;;-1.90;99.90;;;;;;5046484;28;20033;-81
2023/12/07 01:54:01;;;;;;;1.85;0.70;;;-1.90;99.90;;;;;;5046430;28;20428;-81
2023/12/07 01:56:27;;;;;;;2.00;0.70;;;-1.90;99.90;;;;;;5077574;28;20111;-81
2023/12/07 01:58:53;;;;;;;1.90;0.68;;;-1.90;99.90;;;;;;5046579;28;20109;-81
2023/12/07 02:01:19;;;;;;;1.85;0.60;;;-1.90;99.90;;;;;;5065096;28;20588;-81
2023/12/07 02:03:45;;;;;;;2.70;1.10;;;-1.80;99.90;;;;;;5036407;28;20117;-82
2023/12/07 02:06:10;;;;;;;2.00;0.60;;;-1.90;99.90;;;;;;5038676;28;20024;-87
2023/12/07 02:08:41;;;;;;;2.30;0.90;;;-2.00;99.90;;;;;;5046234;28;20489;-81
2023/12/07 02:11:09;;;;;;;2.47;0.75;;;-1.90;99.90;;;;;;5046779;28;20041;-81
2023/12/07 02:13:40;;;;;;;2.70;0.98;;;-2.00;99.90;;;;;;5034717;28;20028;-82
2023/12/07 02:16:15;;;;;;;2.47;0.82;;;-2.00;99.90;;;;;;5060582;28;20025;-82
2023/12/07 02:19:08;;;;;;;2.30;1.00;;;-1.90;99.90;;;;;;5040370;28;20490;-83
2023/12/07 02:21:45;;;;;;;2.95;1.38;;;-2.00;99.90;;;;;;5041262;28;20029;-82
2023/12/07 02:24:17;;;;;;;2.30;0.90;;;-2.00;99.90;;;;;;5054380;28;20190;-79
2023/12/07 02:26:43;;;;;;;2.60;1.05;;;-2.00;99.90;;;;;;5045216;28;20481;-83
2023/12/07 02:29:08;;;;;;;4.30;0.93;;;-2.00;99.90;;;;;;5046319;28;20047;-83
2023/12/07 02:31:34;;;;;;;3.17;0.85;;;-1.90;99.90;;;;;;5048481;28;20504;-84
2023/12/07 02:34:00;;;;;;;2.85;1.02;;;-1.90;99.90;;;;;;5038638;28;20539;-84
2023/12/07 02:36:29;;;;;;;2.33;0.88;;;-1.90;99.90;;;;;;5076731;28;20029;-82
2023/12/07 02:39:01;;;;;;;2.63;0.90;;;-1.90;99.90;;;;;;5044168;28;20032;-83
2023/12/07 02:41:27;;;;;;;2.85;0.98;;;-2.10;99.90;;;;;;5047614;28;20022;-85
2023/12/07 02:43:54;;;;;;;2.50;0.95;;;-2.20;99.90;;;;;;5042938;28;20028;-82
2023/12/07 02:46:20;;;;;;;3.00;0.90;;;-1.90;99.90;;;;;;5076280;28;20489;-83
2023/12/07 02:48:46;;;;;;;4.05;1.40;;;-2.00;99.90;;;;;;5045927;28;20133;-81
2023/12/07 02:51:11;;;;;;;2.30;1.00;;;-1.90;99.90;;;;;;5047392;28;20032;-82
2023/12/07 02:53:37;;;;;;;3.55;1.42;;;-1.90;99.90;;;;;;5046244;28;20535;-82
2023/12/07 02:56:03;;;;;;;4.90;1.35;;;-1.80;99.90;;;;;;5035469;28;20499;-81
2023/12/07 02:58:28;;;;;;;3.20;1.00;;;-1.80;99.90;;;;;;5045457;28;20025;-81
2023/12/07 03:00:54;;;;;;;2.33;1.05;;;-1.80;99.90;;;;;;5042301;28;20056;-83
2023/12/07 03:03:20;;;;;;;2.72;0.98;;;-1.60;99.90;;;;;;5047657;28;20074;-81
2023/12/07 03:05:45;;;;;;;3.15;0.82;;;-1.60;99.90;;;;;;5042899;28;20123;-81
2023/12/07 03:08:11;;;;;;;8.32;4.03;;;-1.40;99.90;;;;;;5046072;28;20056;-81
2023/12/07 03:10:37;;;;;;;6.20;3.20;;;-1.50;99.90;;;;;;5040283;28;20028;-81
2023/12/07 03:13:02;;;;;;;5.50;2.25;;;-1.60;99.90;;;;;;5074481;28;20124;-81
2023/12/07 03:15:28;;;;;;;4.03;1.83;;;-1.70;99.90;;;;;;5062327;28;20032;-81
2023/12/07 03:17:54;;;;;;;4.60;2.17;;;-1.80;99.90;;;;;;5046019;28;20036;-81
2023/12/07 03:20:19;;;;;;;6.07;2.00;;;-1.80;99.90;;;;;;5058678;28;20021;-82
2023/12/07 03:22:45;;;;;;;3.78;1.58;;;-1.70;99.90;;;;;;5035895;28;20039;-82
2023/12/07 03:25:11;;;;;;;5.22;1.95;;;-1.90;99.90;;;;;;5075784;28;20025;-82
2023/12/07 03:27:36;;;;;;;3.00;1.15;;;-1.90;99.90;;;;;;5044851;28;20131;-82
2023/12/07 03:30:03;;;;;;;5.13;1.77;;;-1.90;99.90;;;;;;5047007;28;20033;-83
2023/12/07 03:32:28;;;;;;;3.75;1.55;;;-1.70;99.90;;;;;;5064010;28;20029;-82
2023/12/07 03:34:54;;;;;;;3.67;1.48;;;-1.70;99.90;;;;;;5078060;28;20031;-82
2023/12/07 03:37:19;;;;;;;3.28;1.38;;;-1.90;99.90;;;;;;5040239;28;20029;-83
2023/12/07 03:39:45;;;;;;;3.08;1.42;;;-1.70;99.90;;;;;;5049069;28;20024;-81
2023/12/07 03:42:11;;;;;;;3.20;1.38;;;-1.70;99.90;;;;;;5051529;28;20040;-82
2023/12/07 03:44:36;;;;;;;3.10;1.20;;;-1.70;99.90;;;;;;5040486;28;20192;-82
2023/12/07 03:47:02;;;;;;;3.65;1.38;;;-1.80;99.90;;;;;;5066593;28;20047;-82
2023/12/07 03:49:28;;;;;;;4.07;1.40;;;-1.50;99.90;;;;;;5049768;28;20025;-82
2023/12/07 03:51:54;;;;;;;5.07;2.28;;;-1.30;99.90;;;;;;5081007;28;20757;-85
2023/12/07 03:54:20;;;;;;;4.07;1.77;;;-1.30;99.90;;;;;;5079473;28;20493;-82
2023/12/07 03:56:46;;;;;;;3.95;1.85;;;-1.50;99.90;;;;;;5050465;28;20124;-82
2023/12/07 03:59:11;;;;;;;4.63;1.55;;;-1.40;99.90;;;;;;5066431;28;20048;-84
2023/12/07 04:01:37;;;;;;;4.43;1.60;;;-1.40;99.90;;;;;;5048218;28;20045;-84
2023/12/07 04:04:04;;;;;;;3.00;1.17;;;-1.40;99.90;;;;;;5051487;28;20024;-82
2023/12/07 04:06:30;;;;;;;3.83;2.25;;;-1.30;99.90;;;;;;5040335;28;20038;-83
2023/12/07 04:08:56;;;;;;;3.20;1.35;;;-1.30;99.90;;;;;;5048553;28;20032;-85
2023/12/07 04:11:22;;;;;;;2.72;1.15;;;-1.30;99.90;;;;;;5051113;28;20025;-82
2023/12/07 04:13:48;;;;;;;3.88;1.70;;;-1.40;99.90;;;;;;5049149;28;20499;-84
2023/12/07 04:16:14;;;;;;;4.90;1.88;;;-1.30;99.90;;;;;;5047008;28;20021;-85
2023/12/07 04:18:40;;;;;;;4.15;1.80;;;-1.20;99.90;;;;;;5064575;28;20025;-84
2023/12/07 04:21:06;;;;;;;3.25;1.40;;;-1.20;99.90;;;;;;5067408;28;20020;-83
2023/12/07 04:23:32;;;;;;;4.18;1.58;;;-1.20;99.90;;;;;;5039713;28;20282;-85
2023/12/07 04:25:58;;;;;;;3.13;1.30;;;-1.20;99.90;;;;;;5036123;28;20025;-83
2023/12/07 04:28:23;;;;;;;3.33;1.45;;;-1.30;99.90;;;;;;5075912;28;20039;-82
2023/12/07 04:30:49;;;;;;;3.65;1.52;;;-1.40;99.90;;;;;;5037983;28;20491;-82
2023/12/07 04:33:14;;;;;;;3.72;1.90;;;-1.30;99.90;;;;;;5039933;28;20441;-84
2023/12/07 04:35:40;;;;;;;3.28;1.30;;;-1.00;99.90;;;;;;5031301;28;20021;-82
2023/12/07 04:38:06;;;;;;;3.78;1.80;;;-1.10;99.90;;;;;;5066285;28;20032;-82
2023/12/07 04:40:31;;;;;;;3.40;1.77;;;-1.20;99.90;;;;;;5049735;28;20024;-82
2023/12/07 04:42:57;;;;;;;3.92;1.65;;;-1.10;99.90;;;;;;5050491;28;20056;-82
2023/12/07 04:45:23;;;;;;;3.95;1.80;;;-1.00;99.90;;;;;;5046647;28;20056;-82
2023/12/07 04:47:48;;;;;;;4.25;1.98;;;-1.00;99.90;;;;;;5049267;28;20417;-82
2023/12/07 04:50:14;;;;;;;3.20;1.50;;;-1.00;99.90;;;;;;5066781;28;20074;-83
2023/12/07 04:52:40;;;;;;;3.35;1.70;;;-1.00;99.90;;;;;;5050133;28;20029;-87
2023/12/07 04:55:06;;;;;;;3.95;1.80;;;-1.00;99.90;;;;;;5032520;28;20025;-83
2023/12/07 04:57:36;;;;;;;4.22;1.80;;;-1.00;99.90;;;;;;5040074;28;20036;-84
2023/12/07 05:00:06;;;;;;;4.40;2.10;;;-1.10;99.90;;;;;;5028915;28;20040;-84
2023/12/07 05:02:32;;;;;;;3.83;1.80;;;-1.00;99.90;;;;;;5040215;28;20037;-83
2023/12/07 05:04:57;;;;;;;3.85;1.73;;;-0.70;99.90;;;;;;5050336;28;20032;-83
2023/12/07 05:07:23;;;;;;;4.78;2.40;;;-0.60;99.90;;;;;;5033081;28;20481;-83
2023/12/07 05:09:50;;;;;;;6.40;2.80;;;-0.70;99.90;;;;;;5080827;28;20032;-84
2023/12/07 05:12:16;;;;;;;5.53;2.17;;;-0.60;99.90;;;;;;5049855;28;20074;-84
2023/12/07 05:14:42;;;;;;;3.45;2.00;;;-0.60;99.90;;;;;;5031212;28;20032;-83
2023/12/07 05:17:08;;;;;;;4.63;1.98;;;-0.60;99.90;;;;;;5027893;28;20029;-83
2023/12/07 05:19:33;;;;;;;5.63;2.47;;;-0.50;99.90;;;;;;5047994;28;20378;-84
2023/12/07 05:21:59;;;;;;;5.95;2.20;;;-0.40;99.90;;;;;;5038863;28;20040;-83
2023/12/07 05:24:25;;;;;;;5.55;2.83;;;-0.30;99.90;;;;;;5028618;28;20060;-85
2023/12/07 05:26:51;;;;;;;8.35;4.18;;;-0.20;99.90;;;;;;5060933;28;20044;-84
2023/12/07 05:29:17;;;;;;;5.93;3.10;;;-0.20;99.90;;;;;;5083242;28;20029;-84
2023/12/07 05:31:43;;;;;;;6.95;3.15;;;-0.20;99.90;;;;;;5064166;28;20086;-85
2023/12/07 05:34:09;;;;;;;8.05;4.45;;;-0.20;99.90;;;;;;5051465;28;20025;-83
2023/12/07 05:36:35;;;;;;;9.80;4.35;;;-0.10;99.90;;;;;;5050031;28;20638;-86
2023/12/07 05:39:01;;;;;;;7.40;3.33;;;-0.10;99.90;;;;;;5030782;28;20025;-84
2023/12/07 05:41:26;;;;;;;6.95;3.70;;;-0.10;99.90;;;;;;5048133;28;20048;-83
2023/12/07 05:43:52;;;;;;;5.22;3.17;;;-0.10;99.90;;;;;;5047270;28;20017;-84
2023/12/07 05:46:19;;;;;;;7.40;3.70;;;-0.10;99.90;;;;;;5048527;28;20520;-84
2023/12/07 05:48:45;;;;;;;5.80;3.45;;;0.00;99.90;;;;;;5080811;28;20036;-83
2023/12/07 05:51:15;;;;;;;7.45;3.58;;;0.00;99.90;;;;;;5048373;28;20028;-83
2023/12/07 05:53:41;;;;;;;5.05;2.80;;;0.00;99.90;;;;;;5062690;28;20044;-83
2023/12/07 05:56:08;;;;;;;6.85;2.33;;;0.00;99.90;;;;;;5048750;28;20057;-84
2023/12/07 05:58:33;;;;;;;6.10;3.45;;;0.00;99.90;;;;;;5046260;28;20064;-84
2023/12/07 06:01:01;;;;;;;4.85;2.92;;;0.00;99.90;;;;;;5028592;28;20525;-83
2023/12/07 06:03:27;;;;;;;3.80;2.22;;;0.10;99.90;;;;;;5064907;28;20028;-83
2023/12/07 06:05:53;;;;;;;6.13;2.50;;;0.00;99.90;;;;;;5032084;28;20037;-83
2023/12/07 06:08:19;;;;;;;5.43;3.13;;;0.00;99.90;;;;;;5031279;28;21137;-85
2023/12/07 06:10:45;;;;;;;5.68;2.47;;;0.10;99.90;;;;;;5048802;28;20049;-84
2023/12/07 06:13:11;;;;;;;4.18;2.03;;;0.10;99.90;;;;;;5046660;28;20064;-83
2023/12/07 06:15:37;;;;;;;4.65;2.30;;;0.10;99.90;;;;;;5047029;28;20017;-85
2023/12/07 06:18:03;;;;;;;4.63;2.50;;;0.10;99.90;;;;;;5064761;28;20043;-83
2023/12/07 06:20:29;;;;;;;6.28;2.97;;;0.10;99.90;;;;;;5046138;28;20029;-83
2023/12/07 06:22:55;;;;;;;5.57;2.80;;;0.10;99.90;;;;;;5048495;28;20070;-84
2023/12/07 06:25:21;;;;;;;7.32;4.70;;;0.10;99.90;;;;;;5046581;28;20022;-83
2023/12/07 06:27:46;;;;;;;6.70;4.05;;;0.10;99.90;;;;;;5029705;28;20037;-83
2023/12/07 06:30:12;;;;;;;6.80;3.47;;;0.10;99.90;;;;;;5026490;28;21090;-83
2023/12/07 06:32:38;;;;;;;4.95;3.58;;;0.10;99.90;;;;;;5061722;28;20040;-82
2023/12/07 06:35:04;;;;;;;5.20;2.38;;;0.00;99.90;;;;;;5029414;28;20033;-82
2023/12/07 06:37:30;;;;;;;5.82;2.72;;;0.10;99.90;;;;;;5017051;28;20037;-83
2023/12/07 06:39:56;;;;;;;5.95;3.72;;;0.00;99.90;;;;;;5033143;28;20029;-82
2023/12/07 06:42:21;;;;;;;5.45;3.38;;;0.00;99.90;;;;;;5016540;28;20119;-82
2023/12/07 06:44:50;;;;;;;9.02;3.95;;;0.00;99.90;;;;;;5041606;28;20413;-82
2023/12/07 06:47:16;;;;;;;4.35;2.92;;;0.00;99.90;;;;;;5037800;28;20053;-82
2023/12/07 06:49:42;;;;;;;5.13;3.00;;;0.00;99.90;;;;;;5007777;28;20044;-83
2023/12/07 06:52:08;;;;;;;7.07;3.67;;;0.00;99.90;;;;;;5016701;28;20591;-82
2023/12/07 06:54:34;;;;;;;7.70;4.18;;;0.00;99.90;;;;;;4999302;28;20493;-83
2023/12/07 06:57:00;;;;;;;16.17;4.55;;;0.00;99.90;;;;;;5009901;28;20029;-82
2023/12/07 06:59:25;;;;;;;7.35;4.18;;;0.00;99.90;;;;;;4988499;28;20138;-82
2023/12/07 07:01:51;;;;;;;9.07;4.68;;;0.10;99.90;;;;;;5026101;28;20148;-82
2023/12/07 07:04:17;;;;;;;7.47;4.43;;;0.10;99.90;;;;;;5015457;28;20036;-81
2023/12/07 07:06:44;;;;;;;7.95;4.50;;;0.10;99.90;;;;;;5016321;28;20559;-83
2023/12/07 07:09:09;;;;;;;8.63;4.90;;;0.10;99.90;;;;;;5011909;28;20559;-84
2023/12/07 07:11:36;;;;;;;8.70;5.07;;;0.00;99.90;;;;;;5016693;28;20036;-82
2023/12/07 07:14:02;;;;;;;7.50;4.18;;;0.00;99.90;;;;;;5023367;28;20037;-83
2023/12/07 07:16:28;;;;;;;6.47;4.13;;;0.00;99.90;;;;;;5005636;28;20033;-83
2023/12/07 07:18:54;;;;;;;7.85;4.72;;;0.10;99.90;;;;;;5031103;28;20033;-83
2023/12/07 07:21:20;;;;;;;9.25;5.72;;;0.10;99.90;;;;;;5028541;28;20292;-84
2023/12/07 07:23:46;;;;;;;9.35;5.78;;;0.10;99.90;;;;;;5017668;28;20032;-83
2023/12/07 07:26:16;;;;;;;23.30;7.55;;;0.00;99.90;;;;;;5032956;28;20043;-83
2023/12/07 07:28:42;;;;;;;10.88;6.35;;;0.00;99.90;;;;;;5028160;28;20076;-85
2023/12/07 07:31:08;;;;;;;9.48;5.63;;;0.00;99.90;;;;;;5018539;28;20040;-83
2023/12/07 07:33:34;;;;;;;7.72;4.35;;;0.00;99.90;;;;;;5031661;28;20033;-83
2023/12/07 07:36:00;;;;;;;8.80;4.88;;;0.10;99.90;;;;;;5019140;28;20036;-82
2023/12/07 07:38:26;;;;;;;9.13;5.85;;;0.10;99.90;;;;;;5017973;28;20028;-82
2023/12/07 07:40:51;;;;;;;12.15;6.75;;;0.10;99.90;;;;;;5018174;28;20048;-81
2023/12/07 07:43:17;;;;;;;13.32;7.43;;;0.10;99.90;;;;;;5033588;28;20059;-83
2023/12/07 07:45:43;;;;;;;11.63;6.13;;;0.10;99.90;;;;;;5017208;28;20035;-83
2023/12/07 07:48:09;;;;;;;11.63;5.30;;;0.10;99.90;;;;;;5033886;28;20401;-83
2023/12/07 07:50:36;;;;;;;9.77;5.15;;;0.20;99.90;;;;;;5027321;28;20421;-83
2023/12/07 07:53:03;;;;;;;10.52;4.70;;;0.20;99.90;;;;;;5028549;28;20036;-82
2023/12/07 07:55:29;;;;;;;8.73;4.90;;;0.20;99.90;;;;;;5043218;28;21060;-84
2023/12/07 07:57:55;;;;;;;10.50;4.90;;;0.30;99.90;;;;;;5028400;28;20444;-83
2023/12/07 08:00:21;;;;;;;10.73;4.57;;;0.30;99.90;;;;;;5016904;28;20219;-82
2023/12/07 08:02:47;;;;;;;14.13;7.40;;;0.30;99.90;;;;;;5043525;28;20037;-83
2023/12/07 08:05:13;;;;;;;16.48;8.20;;;0.30;99.90;;;;;;5025253;28;20111;-82
2023/12/07 08:07:41;;;;;;;11.05;5.70;;;0.30;99.90;;;;;;5034650;28;20115;-83
2023/12/07 08:10:08;;;;;;;10.00;5.00;;;0.40;99.90;;;;;;5036123;28;20508;-81
2023/12/07 08:12:35;;;;;;;9.82;4.43;;;0.40;99.90;;;;;;5029317;28;20037;-83
2023/12/07 08:15:01;;;;;;;11.68;5.43;;;0.40;99.90;;;;;;5017953;28;20033;-82
2023/12/07 08:17:26;;;;;;;8.98;4.90;;;0.40;99.90;;;;;;5018975;28;20060;-82
2023/12/07 08:19:52;;;;;;;18.58;7.72;;;0.40;99.90;;;;;;5023551;28;20119;-84
2023/12/07 08:22:18;;;;;;;14.27;7.40;;;0.40;99.90;;;;;;5008725;28;20040;-81
2023/12/07 08:24:44;;;;;;;12.48;6.95;;;0.40;99.90;;;;;;5020388;28;20025;-82
2023/12/07 08:27:10;;;;;;;9.70;4.55;;;0.40;99.90;;;;;;5015328;28;20098;-83
2023/12/07 08:29:36;;;;;;;23.35;8.73;;;0.50;99.90;;;;;;5036550;28;20029;-83
2023/12/07 08:32:03;;;;;;;15.73;7.00;;;0.40;99.90;;;;;;5032832;28;20557;-83
2023/12/07 08:34:29;;;;;;;11.35;5.47;;;0.50;99.90;;;;;;5012176;28;20067;-84
2023/12/07 08:36:55;;;;;;;7.22;3.80;;;0.50;99.90;;;;;;5032753;28;20049;-83
2023/12/07 08:39:20;;;;;;;10.85;5.57;;;0.60;99.90;;;;;;5021554;28;20096;-84
2023/12/07 08:41:46;;;;;;;8.68;4.28;;;0.50;99.90;;;;;;5031255;28;20041;-83
2023/12/07 08:44:12;;;;;;;8.27;3.70;;;0.60;99.90;;;;;;5028381;28;20036;-81
2023/12/07 08:46:38;;;;;;;10.00;5.07;;;0.60;99.90;;;;;;5027641;28;20033;-82
2023/12/07 08:49:03;;;;;;;7.85;4.20;;;0.60;99.90;;;;;;5028259;28;20061;-82
2023/12/07 08:51:29;;;;;;;6.82;3.75;;;0.60;99.90;;;;;;5049881;28;20021;-82
2023/12/07 08:53:55;;;;;;;6.85;3.55;;;0.60;99.90;;;;;;5013098;28;20028;-83
2023/12/07 08:56:21;;;;;;;6.65;3.10;;;0.70;99.90;;;;;;5024640;28;20565;-85
2023/12/07 08:58:46;;;;;;;5.85;3.20;;;0.70;99.90;;;;;;5013495;28;20417;-83
2023/12/07 09:01:12;;;;;;;6.88;3.40;;;0.80;99.90;;;;;;5024593;28;20496;-82
2023/12/07 09:03:38;;;;;;;11.60;3.88;;;0.70;99.90;;;;;;5013924;28;20033;-82
2023/12/07 09:06:05;;;;;;;7.30;3.65;;;0.80;99.90;;;;;;5016674;28;20079;-83
2023/12/07 09:08:30;;;;;;;5.60;2.72;;;0.80;99.90;;;;;;5014157;28;20033;-82
2023/12/07 09:10:56;;;;;;;6.20;2.80;;;0.80;99.90;;;;;;5039365;28;20409;-83
2023/12/07 09:13:22;;;;;;;5.80;2.60;;;0.90;99.90;;;;;;5013810;28;20024;-82
2023/12/07 09:15:47;;;;;;;6.70;2.92;;;0.90;99.90;;;;;;5028761;28;20497;-82
2023/12/07 09:18:13;;;;;;;14.32;4.15;;;0.90;99.90;;;;;;5013922;28;20017;-83
2023/12/07 09:20:48;;;;;;;11.32;4.88;;;0.90;99.90;;;;;;4993593;28;20053;-80
2023/12/07 09:23:17;;;;;;;10.77;5.57;;;0.90;99.90;;;;;;5026749;28;20065;-84
2023/12/07 09:25:43;;;;;;;8.32;4.70;;;0.80;99.90;;;;;;5001452;28;20037;-80
2023/12/07 09:28:08;;;;;;;8.50;4.18;;;0.90;99.90;;;;;;5009398;28;20048;-79
2023/12/07 09:30:34;;;;;;;6.88;3.80;;;0.90;99.90;;;;;;5005953;28;20045;-81
2023/12/07 09:33:02;;;;;;;17.73;5.03;;;0.90;99.90;;;;;;5024687;28;20044;-82
2023/12/07 09:35:28;;;;;;;8.27;3.85;;;1.00;99.90;;;;;;4997391;28;20545;-81
2023/12/07 09:37:54;;;;;;;6.93;3.05;;;1.00;99.90;;;;;;5025298;28;20047;-80
2023/12/07 09:40:24;;;;;;;7.72;3.00;;;1.10;99.90;;;;;;5011074;28;20043;-81
2023/12/07 09:42:50;;;;;;;4.72;2.08;;;1.10;99.90;;;;;;5009560;28;20072;-83
2023/12/07 09:45:18;;;;;;;4.10;1.50;;;1.10;99.90;;;;;;5008907;28;20352;-81
2023/12/07 09:47:47;;;;;;;6.60;2.38;;;1.10;99.90;;;;;;5008060;28;20128;-81
2023/12/07 09:50:16;;;;;;;5.95;1.90;;;1.10;99.90;;;;;;5043236;28;20325;-81
2023/12/07 09:52:42;;;;;;;7.43;3.15;;;1.20;99.90;;;;;;5043642;28;20613;-82
2023/12/07 09:55:09;;;;;;;8.50;2.50;;;1.20;99.90;;;;;;4999230;28;20033;-82
2023/12/07 09:57:37;;;;;;;5.95;2.75;;;1.20;99.90;;;;;;5000527;28;20029;-81
2023/12/07 10:00:04;;;;;;;11.05;3.13;;;1.20;99.90;;;;;;5026534;28;20045;-80
2023/12/07 10:02:36;;;;;;;;;;;1.20;99.90;;;;;;5012046;28;20094;-81
2023/12/07 10:05:10;;;;;;;7.32;2.30;;;1.30;99.90;;;;;;5029117;28;19917;-80
2023/12/07 10:07:39;;;;;;;6.28;2.63;;;1.30;99.90;;;;;;5030065;28;20064;-83
2023/12/07 10:10:06;;;;;;;8.47;3.27;;;1.30;99.90;;;;;;5022607;28;20053;-80
2023/12/07 10:12:36;;;;;;;7.57;3.30;;;1.30;99.90;;;;;;5016293;28;20318;-81
2023/12/07 10:15:15;;;;;;;5.05;1.98;;;1.30;99.90;;;;;;5030914;28;20482;-83
2023/12/07 10:17:52;;;;;;;7.50;2.50;;;1.40;99.90;;;;;;5049107;28;20512;-82
2023/12/07 10:20:25;;;;;;;10.45;4.43;;;1.40;99.90;;;;;;5014827;28;20337;-82
2023/12/07 10:23:07;;;;;;;10.65;4.20;;;1.40;99.90;;;;;;5006771;28;20155;-80
2023/12/07 10:25:51;;;;;;;8.93;3.53;;;1.40;99.90;;;;;;5009995;28;20063;-81
2023/12/07 10:28:19;;;;;;;11.55;4.78;;;1.40;99.90;;;;;;5046450;28;20056;-81
2023/12/07 10:30:45;;;;;;;9.80;3.58;;;1.40;99.90;;;;;;5028394;28;20041;-83
2023/12/07 10:33:12;;;;;;;8.98;3.50;;;1.50;99.90;;;;;;5014565;28;20032;-81
2023/12/07 10:35:42;;;;;;;8.68;2.78;;;1.50;99.90;;;;;;5001465;28;20542;-82
2023/12/07 10:38:09;;;;;;;9.35;3.75;;;1.60;99.90;;;;;;5015098;28;20025;-81
2023/12/07 10:40:35;;;;;;;9.93;4.68;;;1.60;99.90;;;;;;5027329;28;20064;-80
2023/12/07 10:43:06;;;;;;;13.63;4.82;;;1.60;99.90;;;;;;5012735;28;20618;-82
2023/12/07 10:45:33;;;;;;;8.85;3.38;;;1.70;99.90;;;;;;5009680;28;20061;-81
2023/12/07 10:48:04;;;;;;;10.18;3.70;;;1.70;99.90;;;;;;5010668;28;20064;-81
2023/12/07 10:50:34;;;;;;;9.20;3.50;;;1.80;99.90;;;;;;5026698;28;20033;-82
2023/12/07 10:53:10;;;;;;;11.00;3.60;;;1.80;99.90;;;;;;5015151;28;20029;-81
2023/12/07 10:55:52;;;;;;;10.38;4.03;;;1.90;99.90;;;;;;4992294;28;20463;-80
2023/12/07 10:58:19;;;;;;;15.68;5.47;;;1.90;99.90;;;;;;5029003;28;20033;-82
2023/12/07 11:00:46;;;;;;;12.02;4.70;;;1.90;99.90;;;;;;5023956;28;20114;-81
2023/12/07 11:03:16;;;;;;;12.57;4.30;;;2.00;99.90;;;;;;5029334;28;20047;-79
2023/12/07 11:05:43;;;;;;;11.77;4.53;;;2.00;99.90;;;;;;5024784;28;20043;-81
2023/12/07 11:08:15;;;;;;;14.10;5.07;;;2.00;99.90;;;;;;5037314;28;20159;-82
2023/12/07 11:10:54;;;;;;;12.40;5.05;;;2.10;99.90;;;;;;5024883;28;20044;-81
2023/12/07 11:13:31;;;;;;;14.52;5.05;;;2.10;99.90;;;;;;5027602;28;20253;-80
2023/12/07 11:15:57;;;;;;;12.95;4.75;;;2.10;99.90;;;;;;5010240;28;20035;-81
2023/12/07 11:18:26;;;;;;;11.65;4.38;;;2.20;99.90;;;;;;5026204;28;20041;-82
2023/12/07 11:20:53;;;;;;;13.68;4.60;;;2.30;99.90;;;;;;5019614;28;20029;-81
2023/12/07 11:23:19;;;;;;;10.60;4.38;;;2.30;99.90;;;;;;5011964;28;20052;-80
2023/12/07 11:25:46;;;;;;;9.43;3.50;;;2.40;99.90;;;;;;5041550;28;20132;-81
2023/12/07 11:28:13;;;;;;;15.18;5.65;;;2.40;99.90;;;;;;5003427;28;20052;-81
2023/12/07 11:30:42;;;;;;;12.32;3.95;;;2.40;99.90;;;;;;5016679;28;20062;-82
2023/12/07 11:33:09;;;;;;;11.47;4.60;;;2.40;99.90;;;;;;5004425;28;20044;-82
2023/12/07 11:36:01;;;;;;;14.75;5.40;;;2.40;99.90;;;;;;5019369;28;20279;-83
2023/12/07 11:38:27;;;;;;;13.68;5.15;;;2.30;99.90;;;;;;5018789;28;21733;-81
2023/12/07 11:40:55;;;;;;;11.32;4.43;;;2.40;99.90;;;;;;5027320;28;20083;-82
2023/12/07 11:43:33;;;;;;;11.43;4.53;;;2.40;99.90;;;;;;5012665;28;20029;-83
2023/12/07 11:45:59;;;;;;;13.80;5.13;;;2.40;99.90;;;;;;5017288;28;20037;-82
2023/12/07 11:48:25;;;;;;;15.65;6.13;;;2.40;99.90;;;;;;5003814;28;20064;-81
2023/12/07 11:50:58;;;;;;;17.67;6.50;;;2.40;99.90;;;;;;5011465;28;20560;-83
2023/12/07 11:53:26;;;;;;;13.55;4.93;;;2.40;99.90;;;;;;5020592;28;20045;-83
2023/12/07 11:55:52;;;;;;;17.35;6.93;;;2.50;99.90;;;;;;5020980;28;20490;-82
2023/12/07 11:58:18;;;;;;;15.93;7.18;;;2.50;99.90;;;;;;5026530;28;20036;-82
2023/12/07 12:00:46;;;;;;;23.63;11.35;;;2.50;99.90;;;;;;5022359;28;20064;-82
2023/12/07 12:03:15;;;;;;;22.92;9.27;;;2.50;99.90;;;;;;5025578;28;20098;-82
2023/12/07 12:05:43;;;;;;;19.05;8.20;;;2.60;99.90;;;;;;5016330;28;20629;-82
2023/12/07 12:08:10;;;;;;;22.85;10.07;;;2.50;99.90;;;;;;5002261;28;20056;-82
2023/12/07 12:10:36;;;;;;;20.77;9.63;;;2.50;99.90;;;;;;5014513;28;20059;-83
2023/12/07 12:13:03;;;;;;;24.42;10.00;;;2.60;99.90;;;;;;5033996;28;21395;-82
2023/12/07 12:15:29;;;;;;;21.63;9.75;;;2.60;99.90;;;;;;5014219;28;20029;-81
2023/12/07 12:17:58;;;;;;;22.27;9.55;;;2.60;99.90;;;;;;5021318;28;20596;-84
2023/12/07 12:20:25;;;;;;;20.48;8.95;;;2.60;99.90;;;;;;5012330;28;20119;-81
2023/12/07 12:22:53;;;;;;;17.10;7.25;;;2.70;99.90;;;;;;5009223;28;20037;-82
2023/12/07 12:25:25;;;;;;;19.50;8.10;;;2.60;99.90;;;;;;5015898;28;20776;-82
2023/12/07 12:27:56;;;;;;;16.70;7.28;;;2.60;99.90;;;;;;5040753;28;20044;-83
2023/12/07 12:30:22;;;;;;;16.30;8.35;;;2.60;99.90;;;;;;4990034;28;20029;-82
2023/12/07 12:32:48;;;;;;;18.48;8.68;;;2.60;99.90;;;;;;5005497;28;20049;-84
2023/12/07 12:35:15;;;;;;;21.52;9.52;;;2.60;99.90;;;;;;5011653;28;20039;-83
2023/12/07 12:37:45;;;;;;;21.10;8.13;;;2.70;99.90;;;;;;5000395;28;20056;-83
2023/12/07 12:40:11;;;;;;;25.08;10.68;;;2.70;99.90;;;;;;5021109;28;21240;-84
2023/12/07 12:42:37;;;;;;;26.27;10.68;;;2.70;99.90;;;;;;5000064;28;20037;-82
2023/12/07 12:45:08;;;;;;;19.48;8.88;;;2.70;99.90;;;;;;5015623;28;20401;-83
2023/12/07 12:47:37;;;;;;;22.38;9.90;;;2.80;99.90;;;;;;5015281;28;20579;-82
2023/12/07 12:50:04;;;;;;;17.15;7.50;;;2.70;99.90;;;;;;5019717;28;21637;-83
2023/12/07 12:52:30;;;;;;;20.33;9.90;;;2.80;99.90;;;;;;5022704;28;20041;-82